Time;durP1;ratioP1;P1;durP2;ratioP2;P2;SDS_P1;SDS_P2;PMS_P1;PMS_P2;Temp;Humidity;BMP_temperature;BMP_pressure;BME280_temperature;BME280_humidity;BME280_pressure;Samples;Min_cycle;Max_cycle;Signal;HPM_P1;HPM_P2
2022/03/31 00:00:44;;;;;;;5.15;1.95;;;4.60;99.90;;;;;;4961616;28;20034;-81
2022/03/31 00:03:15;;;;;;;5.25;2.20;;;4.60;99.90;;;;;;5002286;28;20089;-81
2022/03/31 00:05:42;;;;;;;3.53;1.70;;;4.60;99.90;;;;;;4962292;28;20053;-81
2022/03/31 00:08:09;;;;;;;4.88;1.83;;;4.60;99.90;;;;;;4963503;28;20046;-82
2022/03/31 00:10:42;;;;;;;3.33;1.58;;;4.70;99.90;;;;;;4989562;28;20034;-82
2022/03/31 00:13:15;;;;;;;4.28;1.70;;;4.70;99.90;;;;;;4964002;28;20034;-82
2022/03/31 00:15:41;;;;;;;3.22;1.77;;;4.60;99.90;;;;;;4962876;28;20026;-84
2022/03/31 00:18:09;;;;;;;3.38;2.03;;;4.70;99.90;;;;;;4976497;28;20038;-82
2022/03/31 00:20:35;;;;;;;3.00;1.73;;;4.60;99.90;;;;;;4994910;28;20048;-82
2022/03/31 00:23:02;;;;;;;4.38;2.13;;;4.60;99.90;;;;;;4972831;28;20026;-81
2022/03/31 00:25:27;;;;;;;5.40;2.13;;;4.50;99.90;;;;;;4973666;28;20023;-82
2022/03/31 00:27:56;;;;;;;4.18;2.28;;;4.50;99.90;;;;;;4973632;28;20402;-80
2022/03/31 00:30:22;;;;;;;5.38;2.00;;;4.50;99.90;;;;;;4974575;28;20079;-82
2022/03/31 00:32:49;;;;;;;4.43;2.15;;;4.50;99.90;;;;;;4959233;28;20027;-82
2022/03/31 00:35:14;;;;;;;3.67;2.40;;;4.50;99.90;;;;;;4962526;28;20029;-83
2022/03/31 00:37:43;;;;;;;7.10;2.65;;;4.50;99.90;;;;;;4965791;28;20022;-82
2022/03/31 00:40:12;;;;;;;6.45;2.53;;;4.50;99.90;;;;;;4966960;28;20038;-82
2022/03/31 00:42:42;;;;;;;4.65;2.58;;;4.40;99.90;;;;;;4979533;28;20061;-83
2022/03/31 00:45:26;;;;;;;4.95;2.50;;;4.50;99.90;;;;;;4979820;28;20050;-82
2022/03/31 00:47:54;;;;;;;7.97;3.00;;;4.40;99.90;;;;;;4977938;28;20034;-82
2022/03/31 00:50:22;;;;;;;4.65;2.55;;;4.40;99.90;;;;;;4981400;28;20031;-82
2022/03/31 00:52:48;;;;;;;5.70;3.00;;;4.30;99.90;;;;;;4988616;28;20030;-81
2022/03/31 00:55:18;;;;;;;4.68;2.75;;;4.30;99.90;;;;;;4976559;28;20034;-82
2022/03/31 00:57:47;;;;;;;4.10;2.83;;;4.30;99.90;;;;;;4960434;28;20093;-80
2022/03/31 01:00:15;;;;;;;6.93;3.20;;;4.20;99.90;;;;;;4981077;28;20038;-82
2022/03/31 01:02:43;;;;;;;5.93;3.05;;;4.20;99.90;;;;;;4981903;28;20054;-80
2022/03/31 01:05:11;;;;;;;6.57;2.78;;;4.10;99.90;;;;;;4979829;28;20033;-81
2022/03/31 01:07:39;;;;;;;5.90;3.08;;;4.20;99.90;;;;;;4981919;28;20023;-81
2022/03/31 01:10:07;;;;;;;8.43;3.13;;;4.20;99.90;;;;;;4979030;28;20101;-81
2022/03/31 01:12:35;;;;;;;4.93;3.17;;;4.20;99.90;;;;;;4959276;28;20030;-82
2022/03/31 01:15:15;;;;;;;6.68;3.20;;;4.10;99.90;;;;;;4957626;28;20030;-82
2022/03/31 01:17:43;;;;;;;4.10;3.20;;;4.10;99.90;;;;;;4983610;28;20038;-82
2022/03/31 01:20:11;;;;;;;6.18;3.13;;;4.10;99.90;;;;;;4975961;28;20100;-83
2022/03/31 01:22:38;;;;;;;5.47;3.30;;;4.10;99.90;;;;;;4962031;28;20049;-81
2022/03/31 01:25:06;;;;;;;5.32;3.30;;;4.10;99.90;;;;;;4978384;28;20062;-81
2022/03/31 01:27:38;;;;;;;9.15;4.05;;;4.10;99.90;;;;;;4981805;28;20023;-82
2022/03/31 01:30:16;;;;;;;4.43;3.42;;;4.00;99.90;;;;;;5000883;28;20031;-83
2022/03/31 01:32:44;;;;;;;6.13;3.63;;;4.00;99.90;;;;;;4973899;28;20056;-82
2022/03/31 01:35:10;;;;;;;6.53;3.75;;;4.00;99.90;;;;;;4988008;28;20034;-81
2022/03/31 01:37:37;;;;;;;7.82;3.67;;;3.90;99.90;;;;;;4961007;28;20035;-81
2022/03/31 01:40:05;;;;;;;7.07;3.58;;;3.90;99.90;;;;;;4959913;28;20050;-81
2022/03/31 01:42:31;;;;;;;5.90;3.42;;;3.90;99.90;;;;;;4975235;28;20057;-83
2022/03/31 01:44:57;;;;;;;6.40;3.63;;;3.90;99.90;;;;;;4975892;28;20030;-81
2022/03/31 01:47:24;;;;;;;6.45;3.78;;;3.90;99.90;;;;;;4959788;28;20084;-80
2022/03/31 01:49:50;;;;;;;5.15;3.63;;;3.90;99.90;;;;;;4962045;28;20023;-82
2022/03/31 01:52:16;;;;;;;6.38;4.30;;;3.90;99.90;;;;;;4975274;28;20038;-82
2022/03/31 01:54:42;;;;;;;7.53;3.80;;;3.80;99.90;;;;;;4958442;28;20031;-81
2022/03/31 01:57:08;;;;;;;7.32;3.80;;;3.90;99.90;;;;;;4973997;28;20494;-82
2022/03/31 01:59:41;;;;;;;6.15;3.67;;;3.90;99.90;;;;;;4975043;28;20046;-83
2022/03/31 02:02:07;;;;;;;8.52;4.03;;;3.80;99.90;;;;;;4957163;28;20054;-83
2022/03/31 02:04:33;;;;;;;7.05;4.13;;;3.80;99.90;;;;;;4975069;28;20027;-82
2022/03/31 02:06:59;;;;;;;7.43;4.22;;;3.80;99.90;;;;;;4990310;28;20038;-83
2022/03/31 02:09:25;;;;;;;10.02;4.55;;;3.70;99.90;;;;;;4959260;28;20220;-83
2022/03/31 02:11:52;;;;;;;6.50;3.85;;;3.80;99.90;;;;;;4974746;28;20055;-83
2022/03/31 02:14:19;;;;;;;5.20;3.80;;;3.80;99.90;;;;;;4977978;28;20034;-83
2022/03/31 02:16:45;;;;;;;6.80;4.60;;;3.80;99.90;;;;;;4974917;28;20033;-82
2022/03/31 02:19:12;;;;;;;5.10;4.03;;;3.80;99.90;;;;;;4975609;28;20720;-82
2022/03/31 02:21:37;;;;;;;6.72;4.63;;;3.80;99.90;;;;;;4964338;28;20104;-81
2022/03/31 02:24:04;;;;;;;6.25;3.97;;;3.80;99.90;;;;;;4963759;28;20297;-82
2022/03/31 02:26:30;;;;;;;6.18;3.92;;;3.80;99.90;;;;;;4967206;28;20118;-83
2022/03/31 02:28:56;;;;;;;6.28;4.30;;;3.70;99.90;;;;;;4978175;28;20085;-83
2022/03/31 02:31:23;;;;;;;6.50;4.30;;;3.80;99.90;;;;;;4962532;28;20030;-83
2022/03/31 02:33:48;;;;;;;6.55;4.53;;;3.80;99.90;;;;;;4977460;28;20022;-83
2022/03/31 02:36:16;;;;;;;5.68;4.03;;;3.70;99.90;;;;;;4976305;28;20057;-84
2022/03/31 02:38:43;;;;;;;8.63;4.43;;;3.80;99.90;;;;;;4980859;28;20054;-83
2022/03/31 02:41:09;;;;;;;9.25;4.75;;;3.70;99.90;;;;;;4959007;28;20031;-83
2022/03/31 02:43:34;;;;;;;8.15;4.72;;;3.60;99.90;;;;;;4968639;28;20031;-84
2022/03/31 02:46:00;;;;;;;6.20;4.70;;;3.60;99.90;;;;;;4970900;28;20033;-83
2022/03/31 02:48:26;;;;;;;8.82;4.80;;;3.70;99.90;;;;;;4997458;28;20040;-83
2022/03/31 02:50:52;;;;;;;7.07;4.28;;;3.70;99.90;;;;;;4975970;28;20112;-82
2022/03/31 02:56:03;;;;;;;9.70;5.30;;;3.60;99.90;;;;;;4979427;28;20070;-83
2022/03/31 02:58:29;;;;;;;8.43;4.63;;;3.60;99.90;;;;;;4989922;28;20057;-83
2022/03/31 03:00:56;;;;;;;6.20;4.80;;;3.60;99.90;;;;;;4974768;28;20034;-82
2022/03/31 03:03:22;;;;;;;9.30;5.63;;;3.60;99.90;;;;;;4976529;28;20030;-84
2022/03/31 03:05:48;;;;;;;6.07;4.65;;;3.60;99.90;;;;;;4985586;28;20105;-83
2022/03/31 03:08:15;;;;;;;7.88;5.78;;;3.50;99.90;;;;;;4971436;28;20023;-83
2022/03/31 03:10:42;;;;;;;9.63;5.45;;;3.40;99.90;;;;;;4985753;28;20033;-84
2022/03/31 03:13:08;;;;;;;8.30;5.68;;;3.40;99.90;;;;;;4967588;28;20022;-83
2022/03/31 03:15:35;;;;;;;12.45;6.10;;;3.30;99.90;;;;;;4997934;28;20061;-82
2022/03/31 03:18:01;;;;;;;8.77;5.18;;;3.30;99.90;;;;;;4983950;28;20038;-83
2022/03/31 03:20:27;;;;;;;9.05;5.95;;;3.30;99.90;;;;;;4978346;28;20030;-82
2022/03/31 03:22:55;;;;;;;9.00;5.85;;;3.30;99.90;;;;;;4978222;28;20084;-84
2022/03/31 03:25:22;;;;;;;8.93;5.68;;;3.20;99.90;;;;;;4992340;28;20027;-82
2022/03/31 03:27:49;;;;;;;10.52;5.47;;;3.20;99.90;;;;;;4966734;28;20022;-83
2022/03/31 03:30:20;;;;;;;9.48;6.18;;;3.10;99.90;;;;;;4969936;28;20121;-83
2022/03/31 03:32:47;;;;;;;10.00;5.85;;;3.10;99.90;;;;;;4987729;28;20054;-83
2022/03/31 03:35:14;;;;;;;9.25;5.93;;;3.00;99.90;;;;;;4984929;28;20554;-84
2022/03/31 03:37:42;;;;;;;11.13;7.18;;;3.00;99.90;;;;;;4971807;28;20042;-83
2022/03/31 03:40:12;;;;;;;9.75;6.78;;;2.90;99.90;;;;;;4955340;28;20089;-82
2022/03/31 03:42:39;;;;;;;9.85;6.93;;;2.90;99.90;;;;;;4970934;28;20025;-81
2022/03/31 03:45:07;;;;;;;10.82;7.15;;;2.80;99.90;;;;;;4969921;28;20035;-81
2022/03/31 03:47:32;;;;;;;12.73;7.35;;;2.60;99.90;;;;;;4957448;28;20045;-81
2022/03/31 03:50:01;;;;;;;10.63;6.85;;;2.50;99.90;;;;;;4982553;28;20022;-80
2022/03/31 03:52:28;;;;;;;11.10;7.13;;;2.50;99.90;;;;;;4976432;28;20034;-81
2022/03/31 03:54:54;;;;;;;10.85;7.57;;;2.40;99.90;;;;;;4970438;28;20026;-80
2022/03/31 03:57:19;;;;;;;10.82;7.30;;;2.30;99.90;;;;;;4987206;28;20671;-82
2022/03/31 03:59:49;;;;;;;11.65;7.32;;;2.20;99.90;;;;;;4956005;28;20030;-81
2022/03/31 04:02:15;;;;;;;12.85;7.40;;;2.20;99.90;;;;;;4969880;28;20046;-80
2022/03/31 04:04:43;;;;;;;12.05;7.72;;;2.10;99.90;;;;;;4970327;28;20027;-80
2022/03/31 04:07:08;;;;;;;11.95;8.10;;;2.00;99.90;;;;;;4971803;28;20085;-80
2022/03/31 04:09:34;;;;;;;11.85;7.95;;;2.00;99.90;;;;;;4972371;28;20030;-79
2022/03/31 04:12:00;;;;;;;10.00;7.57;;;1.90;99.90;;;;;;4968265;28;20038;-80
2022/03/31 04:14:28;;;;;;;11.88;8.48;;;1.90;99.90;;;;;;4969220;28;20031;-83
2022/03/31 04:16:57;;;;;;;14.40;9.52;;;1.90;99.90;;;;;;4985569;28;20035;-80
2022/03/31 04:19:23;;;;;;;10.77;7.63;;;1.90;99.90;;;;;;4957563;28;20033;-81
2022/03/31 04:21:50;;;;;;;15.07;8.20;;;1.90;99.90;;;;;;4959285;28;20039;-81
2022/03/31 04:24:17;;;;;;;12.68;8.65;;;1.90;99.90;;;;;;4976660;28;20090;-82
2022/03/31 04:26:43;;;;;;;12.73;8.55;;;1.80;99.90;;;;;;4971048;28;20037;-83
2022/03/31 04:29:10;;;;;;;14.00;9.48;;;1.80;99.90;;;;;;4981636;28;20030;-83
2022/03/31 04:31:43;;;;;;;13.55;9.02;;;1.70;99.90;;;;;;4960569;28;20039;-82
2022/03/31 04:34:11;;;;;;;15.80;9.02;;;1.70;99.90;;;;;;4975475;28;20046;-81
2022/03/31 04:36:36;;;;;;;13.27;8.77;;;1.70;99.90;;;;;;4972136;28;20069;-81
2022/03/31 04:39:03;;;;;;;13.68;8.90;;;1.60;99.90;;;;;;4988892;28;20573;-80
2022/03/31 04:41:29;;;;;;;13.30;9.50;;;1.60;99.90;;;;;;4955383;28;20097;-81
2022/03/31 04:43:55;;;;;;;13.98;8.65;;;1.60;99.90;;;;;;4971612;28;20096;-82
2022/03/31 04:46:22;;;;;;;14.82;8.93;;;1.50;99.90;;;;;;4970763;28;20026;-82
2022/03/31 04:48:47;;;;;;;14.48;9.77;;;1.50;99.90;;;;;;4972248;28;20007;-83
2022/03/31 04:51:16;;;;;;;13.93;9.00;;;1.50;99.90;;;;;;4963677;28;20030;-82
2022/03/31 04:53:42;;;;;;;14.80;9.52;;;1.50;99.90;;;;;;4977343;28;20034;-80
2022/03/31 04:56:07;;;;;;;14.32;9.90;;;1.50;99.90;;;;;;4960231;28;20035;-80
2022/03/31 04:58:36;;;;;;;14.73;10.02;;;1.50;99.90;;;;;;4973899;28;20767;-81
2022/03/31 05:01:02;;;;;;;14.57;9.23;;;1.50;99.90;;;;;;4973089;28;20035;-79
2022/03/31 05:03:28;;;;;;;15.13;9.32;;;1.40;99.90;;;;;;4964501;28;20050;-83
2022/03/31 05:05:54;;;;;;;14.77;10.60;;;1.50;99.90;;;;;;4972209;28;20030;-80
2022/03/31 05:08:20;;;;;;;15.85;9.80;;;1.40;99.90;;;;;;4972597;28;20022;-80
2022/03/31 05:10:47;;;;;;;16.70;9.88;;;1.40;99.90;;;;;;4973524;28;20034;-80
2022/03/31 05:13:15;;;;;;;15.68;10.48;;;1.40;99.90;;;;;;4977142;28;20118;-81
2022/03/31 05:15:40;;;;;;;15.63;10.32;;;1.40;99.90;;;;;;4959898;28;20027;-80
2022/03/31 05:18:06;;;;;;;14.48;9.75;;;1.40;99.90;;;;;;4973458;28;20090;-79
2022/03/31 05:20:32;;;;;;;15.82;10.45;;;1.40;99.90;;;;;;4974457;28;20617;-78
2022/03/31 05:22:58;;;;;;;15.18;9.50;;;1.50;99.90;;;;;;4953913;28;20023;-80
2022/03/31 05:25:24;;;;;;;15.45;10.20;;;1.40;99.90;;;;;;4971806;28;20688;-79
2022/03/31 05:27:51;;;;;;;17.42;9.73;;;1.50;99.90;;;;;;4970050;28;20696;-79
2022/03/31 05:30:19;;;;;;;15.35;9.95;;;1.50;99.90;;;;;;4970759;28;20031;-80
2022/03/31 05:32:46;;;;;;;13.23;9.60;;;1.40;99.90;;;;;;4986014;28;20026;-80
2022/03/31 05:35:13;;;;;;;14.00;8.80;;;1.40;99.90;;;;;;4971645;28;20042;-80
2022/03/31 05:37:41;;;;;;;14.98;9.90;;;1.40;99.90;;;;;;4971680;28;20038;-78
2022/03/31 05:40:09;;;;;;;15.85;10.25;;;1.40;99.90;;;;;;4973809;28;20046;-82
2022/03/31 05:42:36;;;;;;;15.93;9.93;;;1.40;99.90;;;;;;4989537;28;20056;-81
2022/03/31 05:45:04;;;;;;;15.00;9.55;;;1.40;99.90;;;;;;4972610;28;20037;-80
2022/03/31 05:47:29;;;;;;;16.15;9.70;;;1.30;99.90;;;;;;4987818;28;20946;-81
2022/03/31 05:49:55;;;;;;;15.13;9.35;;;1.30;99.90;;;;;;4970380;28;20026;-80
2022/03/31 05:52:21;;;;;;;15.55;9.55;;;1.30;99.90;;;;;;4972352;28;20026;-79
2022/03/31 05:54:48;;;;;;;13.82;8.60;;;1.30;99.90;;;;;;5003064;28;20402;-78
2022/03/31 05:57:14;;;;;;;14.75;8.80;;;1.30;99.90;;;;;;4974462;28;20049;-79
2022/03/31 05:59:41;;;;;;;15.13;8.55;;;1.20;99.90;;;;;;4972432;28;20026;-80
2022/03/31 06:02:08;;;;;;;12.80;8.38;;;1.20;99.90;;;;;;4960386;28;20042;-80
2022/03/31 06:04:34;;;;;;;14.80;8.93;;;1.20;99.90;;;;;;4991860;28;20133;-80
2022/03/31 06:07:00;;;;;;;16.27;8.57;;;1.20;99.90;;;;;;4992351;28;20058;-78
2022/03/31 06:09:26;;;;;;;15.00;9.02;;;1.20;99.90;;;;;;4978704;28;20045;-80
2022/03/31 06:11:51;;;;;;;17.17;9.70;;;1.10;99.90;;;;;;4979644;28;20026;-78
2022/03/31 06:14:17;;;;;;;15.15;8.68;;;1.20;99.90;;;;;;4994807;28;20041;-80
2022/03/31 06:16:43;;;;;;;13.25;8.27;;;1.10;99.90;;;;;;4994974;28;20034;-80
2022/03/31 06:19:08;;;;;;;16.48;9.90;;;1.00;99.90;;;;;;4988495;28;20031;-76
2022/03/31 06:21:35;;;;;;;12.95;8.40;;;1.00;99.90;;;;;;4986341;28;20041;-77
2022/03/31 06:24:01;;;;;;;14.88;8.52;;;1.00;99.90;;;;;;4965867;28;20410;-76
2022/03/31 06:26:28;;;;;;;15.60;8.70;;;1.00;99.90;;;;;;4982903;28;20022;-76
2022/03/31 06:28:57;;;;;;;16.50;9.00;;;1.00;99.90;;;;;;4979512;28;20065;-77
2022/03/31 06:31:24;;;;;;;18.83;9.32;;;1.00;99.90;;;;;;4968398;28;20034;-74
2022/03/31 06:33:50;;;;;;;13.70;8.70;;;1.10;99.90;;;;;;4982921;28;20038;-77
2022/03/31 06:36:16;;;;;;;14.30;8.27;;;1.10;99.90;;;;;;4965787;28;20309;-77
2022/03/31 06:38:43;;;;;;;17.90;8.63;;;1.00;99.90;;;;;;4961582;28;20034;-77
2022/03/31 06:41:14;;;;;;;13.10;7.78;;;1.00;99.90;;;;;;4964636;28;20053;-77
2022/03/31 06:43:43;;;;;;;14.75;8.25;;;1.00;99.90;;;;;;4979497;28;20037;-75
2022/03/31 06:46:09;;;;;;;14.32;8.35;;;0.90;99.90;;;;;;4984377;28;20032;-76
2022/03/31 06:48:36;;;;;;;11.50;7.68;;;1.00;99.90;;;;;;4969036;28;20031;-77
2022/03/31 06:51:04;;;;;;;13.38;8.25;;;0.90;99.90;;;;;;4962484;28;20104;-76
2022/03/31 06:53:30;;;;;;;14.10;7.93;;;0.90;99.90;;;;;;4950158;28;20034;-75
2022/03/31 06:55:57;;;;;;;18.02;8.95;;;0.90;99.90;;;;;;4965749;28;20083;-77
2022/03/31 06:58:25;;;;;;;15.57;9.35;;;0.90;99.90;;;;;;4964477;28;20034;-77
2022/03/31 07:00:52;;;;;;;13.77;8.38;;;0.90;99.90;;;;;;4974746;28;20554;-78
2022/03/31 07:03:18;;;;;;;16.88;8.40;;;0.90;99.90;;;;;;4949631;28;20035;-77
2022/03/31 07:05:44;;;;;;;15.18;7.97;;;0.90;99.90;;;;;;5002035;28;20030;-78
2022/03/31 07:08:10;;;;;;;12.48;7.93;;;0.90;99.90;;;;;;4953510;28;20121;-82
2022/03/31 07:10:36;;;;;;;15.95;8.68;;;0.90;99.90;;;;;;4981617;28;20069;-76
2022/03/31 07:13:01;;;;;;;16.15;8.68;;;0.90;99.90;;;;;;4963695;28;20056;-76
2022/03/31 07:15:28;;;;;;;16.40;8.35;;;0.90;99.90;;;;;;4952407;28;20426;-77
2022/03/31 07:17:55;;;;;;;16.00;8.30;;;0.90;99.90;;;;;;4981718;28;20119;-78
2022/03/31 07:20:22;;;;;;;12.45;7.82;;;0.90;99.90;;;;;;4986432;28;20034;-78
2022/03/31 07:22:48;;;;;;;14.35;7.88;;;0.90;99.90;;;;;;4967447;28;20042;-77
2022/03/31 07:25:16;;;;;;;15.35;8.15;;;0.90;99.90;;;;;;4986406;28;20506;-77
2022/03/31 07:27:44;;;;;;;15.40;8.10;;;0.90;99.90;;;;;;4996175;28;20105;-77
2022/03/31 07:30:13;;;;;;;12.35;7.85;;;0.90;99.90;;;;;;4990654;28;20038;-78
2022/03/31 07:33:00;;;;;;;14.60;8.95;;;0.90;99.90;;;;;;4988096;28;20034;-77
2022/03/31 07:35:29;;;;;;;15.82;7.93;;;0.90;99.90;;;;;;4969027;28;20117;-77
2022/03/31 07:37:56;;;;;;;13.32;8.02;;;0.90;99.90;;;;;;4983329;28;20041;-76
2022/03/31 07:40:23;;;;;;;13.23;8.50;;;0.90;99.90;;;;;;4960899;28;20034;-77
2022/03/31 07:42:51;;;;;;;18.48;8.65;;;0.90;99.90;;;;;;4963553;28;20034;-78
2022/03/31 07:45:17;;;;;;;14.73;8.15;;;0.90;99.90;;;;;;4978820;28;20049;-77
2022/03/31 07:47:44;;;;;;;15.45;8.13;;;0.90;99.90;;;;;;4949471;28;20108;-77
2022/03/31 07:50:12;;;;;;;16.50;8.82;;;0.90;99.90;;;;;;4962117;28;20030;-76
2022/03/31 07:52:39;;;;;;;17.52;10.07;;;0.90;99.90;;;;;;4990215;28;20395;-76
2022/03/31 07:55:08;;;;;;;19.42;8.88;;;0.90;99.90;;;;;;4961978;28;20026;-75
2022/03/31 07:57:34;;;;;;;15.48;8.80;;;0.90;99.90;;;;;;4959895;28;20023;-77
2022/03/31 08:00:00;;;;;;;13.68;8.35;;;0.90;99.90;;;;;;4965578;28;20561;-76
2022/03/31 08:02:26;;;;;;;14.70;8.77;;;0.90;99.90;;;;;;4960824;28;20081;-77
2022/03/31 08:04:53;;;;;;;18.80;9.30;;;0.90;99.90;;;;;;4975650;28;20080;-77
2022/03/31 08:07:19;;;;;;;15.63;8.70;;;0.90;99.90;;;;;;4962220;28;20023;-77
2022/03/31 08:09:45;;;;;;;15.15;8.95;;;1.00;99.90;;;;;;4978158;28;20509;-77
2022/03/31 08:12:12;;;;;;;15.35;8.90;;;1.00;99.90;;;;;;4963791;28;20031;-77
2022/03/31 08:14:38;;;;;;;16.15;9.43;;;1.00;99.90;;;;;;4979196;28;20089;-78
2022/03/31 08:17:04;;;;;;;18.15;9.88;;;1.00;99.90;;;;;;4966872;28;20026;-76
2022/03/31 08:19:32;;;;;;;16.92;9.00;;;1.00;99.90;;;;;;4954013;28;20041;-77
2022/03/31 08:22:02;;;;;;;17.98;9.70;;;1.00;99.90;;;;;;4963526;28;20034;-78
2022/03/31 08:24:30;;;;;;;18.20;9.10;;;1.10;99.90;;;;;;4961895;28;20019;-77
2022/03/31 08:26:59;;;;;;;17.48;9.35;;;1.10;99.90;;;;;;4974438;28;20104;-77
2022/03/31 08:29:25;;;;;;;16.48;8.80;;;1.20;99.90;;;;;;4966321;28;20033;-77
2022/03/31 08:31:52;;;;;;;17.15;8.13;;;1.30;99.90;;;;;;4982908;28;20399;-77
2022/03/31 08:34:18;;;;;;;12.68;8.25;;;1.30;99.90;;;;;;4967603;28;20034;-76
2022/03/31 08:36:47;;;;;;;15.23;8.10;;;1.30;99.90;;;;;;4970335;28;20118;-76
2022/03/31 08:39:13;;;;;;;18.58;8.43;;;1.30;99.90;;;;;;4982515;28;20026;-74
2022/03/31 08:41:39;;;;;;;16.35;8.75;;;1.40;99.90;;;;;;4964836;28;20045;-78
2022/03/31 08:44:06;;;;;;;16.98;8.25;;;1.40;99.90;;;;;;4952603;28;20066;-77
2022/03/31 08:46:34;;;;;;;14.57;8.05;;;1.50;99.90;;;;;;4969882;28;20026;-77
2022/03/31 08:49:01;;;;;;;15.93;7.88;;;1.60;99.90;;;;;;4970818;28;20035;-78
2022/03/31 08:51:27;;;;;;;14.00;7.85;;;1.60;99.90;;;;;;4969072;28;20038;-77
2022/03/31 08:53:53;;;;;;;12.65;7.63;;;1.60;99.90;;;;;;4988991;28;20078;-77
2022/03/31 08:56:19;;;;;;;15.95;7.45;;;1.70;99.90;;;;;;4964959;28;20320;-77
2022/03/31 08:58:46;;;;;;;11.85;7.22;;;1.70;99.90;;;;;;4989894;28;20549;-77
2022/03/31 09:01:16;;;;;;;14.63;7.35;;;1.50;99.90;;;;;;4970642;28;20031;-78
2022/03/31 09:03:43;;;;;;;11.75;6.00;;;1.60;99.90;;;;;;4972509;28;20026;-77
2022/03/31 09:06:30;;;;;;;12.05;7.30;;;1.50;99.90;;;;;;4989514;28;20510;-77
2022/03/31 09:08:56;;;;;;;11.18;6.65;;;1.60;99.90;;;;;;4970574;28;20030;-76
2022/03/31 09:11:33;;;;;;;15.75;7.05;;;1.70;99.90;;;;;;4987014;28;20039;-77
2022/03/31 09:14:04;;;;;;;12.82;6.80;;;1.70;99.90;;;;;;4950793;28;20506;-78
2022/03/31 09:16:35;;;;;;;12.13;6.40;;;1.90;99.90;;;;;;4954253;28;20030;-77
2022/03/31 09:19:13;;;;;;;10.82;6.80;;;2.00;99.90;;;;;;4985383;28;20419;-77
2022/03/31 09:21:54;;;;;;;15.25;7.00;;;2.10;99.90;;;;;;4987603;28;20098;-77
2022/03/31 09:24:22;;;;;;;11.18;6.82;;;2.20;99.90;;;;;;4970544;28;20026;-76
2022/03/31 09:26:49;;;;;;;9.77;5.95;;;2.40;99.90;;;;;;4970782;28;20037;-77
2022/03/31 09:29:19;;;;;;;12.00;6.90;;;2.40;99.90;;;;;;4990905;28;20030;-76
2022/03/31 09:31:47;;;;;;;14.43;6.70;;;2.60;99.90;;;;;;4975401;28;20571;-75
2022/03/31 09:34:15;;;;;;;12.40;6.22;;;2.80;99.90;;;;;;4987672;28;20030;-74
2022/03/31 09:36:48;;;;;;;11.57;6.47;;;2.70;99.90;;;;;;4972748;28;20042;-77
2022/03/31 09:39:17;;;;;;;9.43;6.05;;;2.70;99.90;;;;;;4995212;28;20525;-77
2022/03/31 09:41:47;;;;;;;10.45;6.57;;;2.70;99.90;;;;;;4968712;28;20145;-76
2022/03/31 09:44:17;;;;;;;9.27;5.97;;;2.80;99.90;;;;;;4983413;28;20035;-76
2022/03/31 09:46:45;;;;;;;10.63;6.47;;;2.90;99.90;;;;;;4983741;28;20027;-77
2022/03/31 09:49:13;;;;;;;10.35;5.82;;;3.00;99.90;;;;;;4969357;28;20102;-78
2022/03/31 09:51:40;;;;;;;8.70;6.13;;;3.00;99.90;;;;;;4976297;28;20065;-77
2022/03/31 09:54:06;;;;;;;10.73;6.60;;;3.10;99.90;;;;;;4971351;28;20126;-75
2022/03/31 09:56:38;;;;;;;11.32;6.57;;;3.10;99.90;;;;;;4986784;28;20465;-77
2022/03/31 09:59:07;;;;;;;12.50;7.20;;;3.30;99.90;;;;;;4968792;28;20113;-77
2022/03/31 10:01:33;;;;;;;9.77;6.70;;;3.40;99.90;;;;;;4987234;28;20035;-76
2022/03/31 10:04:08;;;;;;;8.80;6.40;;;3.60;99.90;;;;;;4968681;28;20081;-77
2022/03/31 10:06:39;;;;;;;13.27;6.93;;;3.70;99.90;;;;;;5000199;28;20070;-76
2022/03/31 10:09:07;;;;;;;11.60;6.38;;;3.90;99.90;;;;;;4968642;28;20940;-77
2022/03/31 10:11:40;;;;;;;10.05;6.20;;;3.80;99.90;;;;;;4985399;28;20529;-78
2022/03/31 10:14:17;;;;;;;10.52;6.43;;;3.90;99.90;;;;;;4969032;28;20110;-78
2022/03/31 10:16:55;;;;;;;9.68;5.43;;;4.10;99.90;;;;;;4988758;28;20617;-76
2022/03/31 10:19:28;;;;;;;11.30;6.28;;;4.10;99.90;;;;;;4959640;28;20042;-77
2022/03/31 10:22:08;;;;;;;8.55;5.38;;;4.30;99.90;;;;;;4968627;28;20506;-77
2022/03/31 10:24:46;;;;;;;10.77;6.47;;;4.30;99.90;;;;;;4966561;28;20045;-78
2022/03/31 10:27:27;;;;;;;8.70;5.40;;;4.40;99.90;;;;;;4974204;28;20027;-79
2022/03/31 10:29:53;;;;;;;8.63;5.70;;;4.40;99.90;;;;;;4979484;28;20027;-78
2022/03/31 10:32:24;;;;;;;8.65;5.05;;;4.30;99.90;;;;;;4962731;28;20030;-75
2022/03/31 10:34:51;;;;;;;10.02;5.75;;;4.40;99.90;;;;;;4949737;28;20018;-76
2022/03/31 10:37:38;;;;;;;9.07;6.03;;;4.50;99.90;;;;;;4949211;28;20494;-75
2022/03/31 10:40:09;;;;;;;13.90;6.25;;;4.70;99.90;;;;;;4964832;28;20077;-71
2022/03/31 10:42:36;;;;;;;7.82;5.60;;;4.80;99.90;;;;;;4979644;28;20411;-71
2022/03/31 10:45:20;;;;;;;7.70;5.10;;;4.90;99.90;;;;;;4958427;28;20026;-71
2022/03/31 10:47:46;;;;;;;8.10;4.70;;;5.00;99.90;;;;;;4968220;28;20025;-72
2022/03/31 10:50:28;;;;;;;9.90;5.88;;;5.20;99.90;;;;;;4977704;28;20030;-76
2022/03/31 10:53:01;;;;;;;9.05;5.43;;;5.20;99.90;;;;;;4963610;28;20076;-76
2022/03/31 10:55:40;;;;;;;10.25;5.35;;;5.20;99.90;;;;;;4962773;28;20085;-76
2022/03/31 10:58:06;;;;;;;6.50;4.95;;;5.40;99.90;;;;;;4962596;28;20022;-75
2022/03/31 11:00:33;;;;;;;5.97;4.40;;;5.50;99.90;;;;;;4979894;28;20073;-75
2022/03/31 11:02:59;;;;;;;8.10;4.60;;;5.50;99.90;;;;;;4962424;28;20081;-76
2022/03/31 11:05:28;;;;;;;6.47;4.50;;;5.50;99.90;;;;;;4959400;28;20482;-76
2022/03/31 11:08:21;;;;;;;8.07;4.25;;;5.70;99.90;;;;;;4966081;28;20038;-76
2022/03/31 11:10:49;;;;;;;5.68;3.40;;;6.10;99.90;;;;;;4969382;28;20046;-76
2022/03/31 11:13:17;;;;;;;6.28;4.53;;;6.30;99.90;;;;;;4998291;28;20036;-76
2022/03/31 11:15:47;;;;;;;5.40;3.70;;;6.50;99.90;;;;;;4997432;28;20027;-75
2022/03/31 11:18:12;;;;;;;7.00;4.05;;;6.60;99.90;;;;;;4967135;28;20101;-77
2022/03/31 11:20:38;;;;;;;5.32;3.15;;;6.60;99.90;;;;;;4969527;28;20061;-77
2022/03/31 11:23:08;;;;;;;5.93;3.50;;;6.60;99.90;;;;;;4971088;28;20023;-77
2022/03/31 11:25:34;;;;;;;6.03;3.90;;;6.70;99.90;;;;;;4971169;28;20464;-75
2022/03/31 11:28:08;;;;;;;6.30;3.30;;;6.70;99.90;;;;;;4985626;28;20105;-76
2022/03/31 11:30:34;;;;;;;5.63;3.60;;;6.60;99.90;;;;;;4963473;28;20026;-77
2022/03/31 11:33:00;;;;;;;4.70;3.10;;;6.60;99.90;;;;;;4989266;28;20034;-78
2022/03/31 11:35:28;;;;;;;5.28;3.20;;;6.50;99.90;;;;;;4970841;28;20022;-77
2022/03/31 11:38:00;;;;;;;5.75;3.00;;;6.70;99.90;;;;;;4971413;28;21489;-78
2022/03/31 11:40:32;;;;;;;4.00;2.67;;;6.70;99.90;;;;;;4989290;28;20034;-77
2022/03/31 11:43:00;;;;;;;4.43;2.40;;;6.80;99.90;;;;;;4989345;28;20086;-78
2022/03/31 11:45:43;;;;;;;5.75;3.10;;;6.80;99.90;;;;;;4971639;28;20026;-78
2022/03/31 11:48:20;;;;;;;4.55;2.83;;;7.30;99.90;;;;;;4973208;28;20037;-78
2022/03/31 11:51:04;;;;;;;7.00;2.72;;;7.40;99.90;;;;;;4988501;28;20101;-77
2022/03/31 11:53:33;;;;;;;5.13;2.10;;;7.80;99.90;;;;;;4971585;28;20041;-78
2022/03/31 11:56:09;;;;;;;15.63;2.70;;;8.00;99.90;;;;;;4984835;28;20498;-78
2022/03/31 11:58:49;;;;;;;3.75;2.70;;;7.80;99.90;;;;;;4967740;28;20042;-74
2022/03/31 12:01:43;;;;;;;5.05;1.77;;;7.70;99.90;;;;;;4983711;28;20039;-78
2022/03/31 12:04:27;;;;;;;2.83;1.70;;;7.60;99.90;;;;;;4969875;28;20054;-75
2022/03/31 12:06:54;;;;;;;3.42;2.00;;;7.60;99.90;;;;;;4960009;28;20034;-76
2022/03/31 12:09:25;;;;;;;3.67;2.10;;;7.80;99.90;;;;;;4979961;28;20034;-77
2022/03/31 12:11:52;;;;;;;4.05;2.03;;;7.90;99.90;;;;;;4968885;28;20038;-77
2022/03/31 12:14:18;;;;;;;5.32;2.22;;;8.00;99.90;;;;;;4987002;28;20027;-78
2022/03/31 12:16:50;;;;;;;4.47;1.95;;;8.20;99.90;;;;;;4986554;28;20041;-79
2022/03/31 12:19:17;;;;;;;13.40;4.05;;;8.30;99.90;;;;;;4969642;28;20565;-78
2022/03/31 12:21:52;;;;;;;5.05;2.72;;;8.20;99.90;;;;;;4969635;28;20041;-77
2022/03/31 12:24:19;;;;;;;5.78;2.03;;;8.40;99.90;;;;;;4969945;28;20027;-78
2022/03/31 12:27:00;;;;;;;2.92;1.88;;;8.30;99.90;;;;;;4982374;28;20473;-77
2022/03/31 12:29:31;;;;;;;3.47;1.83;;;8.20;99.90;;;;;;4987550;28;20045;-78
2022/03/31 12:32:07;;;;;;;4.57;2.10;;;7.90;99.90;;;;;;4971536;28;20057;-76
2022/03/31 12:34:36;;;;;;;9.75;3.55;;;7.90;99.90;;;;;;4955785;28;20014;-77
2022/03/31 12:37:02;;;;;;;76.07;35.10;;;8.10;99.90;;;;;;4989595;28;20042;-74
2022/03/31 12:39:28;;;;;;;222.20;91.63;;;8.00;99.90;;;;;;4975024;28;20106;-77
2022/03/31 12:41:56;;;;;;;25.73;13.73;;;7.80;99.90;;;;;;4988532;28;20073;-75
2022/03/31 12:44:26;;;;;;;19.02;11.70;;;7.70;99.90;;;;;;4988285;28;20382;-76
2022/03/31 12:46:58;;;;;;;3.90;1.83;;;7.70;99.90;;;;;;4981415;28;20581;-77
2022/03/31 12:49:27;;;;;;;4.13;1.75;;;7.70;99.90;;;;;;4991883;28;20029;-77
2022/03/31 12:51:57;;;;;;;4.30;1.83;;;7.30;99.90;;;;;;4970423;28;20034;-77
2022/03/31 12:54:32;;;;;;;3.07;1.70;;;7.30;99.90;;;;;;4988145;28;20678;-77
2022/03/31 12:57:01;;;;;;;3.38;2.03;;;7.10;99.90;;;;;;4990497;28;20038;-77
2022/03/31 12:59:30;;;;;;;3.47;1.52;;;7.10;99.90;;;;;;4988865;28;20078;-77